Aérodrome :
LOGIN :

S'inscrire | Disclaimer

   EN    FR    IT 

 










Légende :    VFR   VFR Marginal   IFR   IFR Intensif   IFR Très Intensif
Visi : 
Plafond : 
>= 8 km
>= 3000ft
5 à 8 km
1000 à 3000 ft
1500m à 5 km
500 à 1000 ft
800 à 1500m
200 à 500 ft
< 800m
< 200 ft
Symboles :   Orages  Brouillard  Fortes neiges  Fortes précipitations  Vent > 20 kt
SIGMETs :   Divers  Orages  Givrage  Turbulence  Onde Orograph.  Cendres Volcan.







- Altitude de l'aérodrome : 1411 ft
- Code IATA : GVA


LSGG - Genève Cointrin

DERNIER METAR :
  • 181820Z VRB01KT 9999 FEW002 BKN300 01/M00 Q1020 NOSIG

METARs EXPIRÉS :
  • 181750Z 33002KT 9999 FEW002 BKN300 01/M01 Q1020 NOSIG
  • 181720Z VRB01KT CAVOK 02/00 Q1020 NOSIG
  • 181650Z VRB01KT CAVOK 03/00 Q1020 NOSIG
  • 181620Z VRB01KT 9999 FEW023 BKN300 03/00 Q1021 NOSIG
  • 181550Z VRB02KT 9999 FEW023 BKN300 04/00 Q1020 NOSIG

TAF TAF LSGG
Valide du 18 à 18h jusqu'au 20 à 00h UTC


181725Z 1818/1924 VRB03KT 9999 SCT025 TX05/1915Z TN00/1906Z
TEMPO 1910/1916 4500 SHRA BKN035
ATIS : +41 22 417 40 81
Pas de NOTAMs connus pour ce terrain.



MET'MAP, la Météo Aéronautique d'un coup d'oeil ! - Copyright ORBIFLY Décembre 2007 - Disclaimer

ORBIFLY MET'MAP TEAM :

Programmation & Développement : Alexandra Zaïnal
Conception & Développement : Baudouin d'Aumeries
Co-Programmation & Développement : Marc-Olivier Méhu
Soutien technique & logistique : Manuel Goepfert

Contact : metmap@orbifly.com




SOURCES & CREDITS :

   NOAA